createdAt,value
2023-01-09T00:02:06.489Z,20.25
2023-01-09T00:04:51.781Z,21.98
2023-01-09T00:07:32.395Z,20.45
2023-01-09T00:10:15.388Z,19.83
2023-01-09T00:12:49.995Z,20.92
2023-01-09T00:15:33.511Z,21.92
2023-01-09T00:18:11.719Z,22.90
2023-01-09T00:20:58.263Z,20.45
2023-01-09T00:23:33.917Z,21.10
2023-01-09T00:26:18.505Z,20.80
2023-01-09T00:28:55.711Z,20.70
2023-01-09T00:31:36.552Z,20.45
2023-01-09T00:34:25.991Z,21.02
2023-01-09T00:36:58.230Z,20.20
2023-01-09T00:39:36.460Z,20.38
2023-01-09T00:42:25.840Z,19.73
2023-01-09T00:45:14.502Z,18.98
2023-01-09T00:47:48.339Z,18.55
2023-01-09T00:50:35.178Z,17.15
2023-01-09T00:53:26.370Z,16.27
2023-01-09T00:56:16.856Z,17.60
2023-01-09T00:58:58.506Z,17.08
2023-01-09T01:01:39.766Z,15.32
2023-01-09T01:04:28.179Z,15.93
2023-01-09T01:07:25.115Z,16.60
2023-01-09T01:10:03.041Z,16.95
2023-01-09T01:12:42.919Z,15.93
2023-01-09T01:15:26.877Z,16.35
2023-01-09T01:18:16.538Z,15.50
2023-01-09T01:20:52.578Z,13.55
2023-01-09T01:23:38.869Z,13.68
2023-01-09T01:26:18.101Z,14.13
2023-01-09T01:28:50.698Z,14.90
2023-01-09T01:31:26.112Z,13.68
2023-01-09T01:34:03.286Z,13.60
2023-01-09T01:36:48.790Z,12.13
2023-01-09T01:39:24.485Z,12.43
2023-01-09T01:42:02.133Z,12.23
2023-01-09T01:45:02.091Z,12.10
2023-01-09T01:48:04.018Z,11.65
2023-01-09T01:50:46.612Z,11.18
2023-01-09T01:53:27.267Z,12.43
2023-01-09T01:56:21.847Z,11.10
2023-01-09T01:59:13.287Z,11.15
2023-01-09T02:01:57.691Z,11.68
2023-01-09T02:04:35.523Z,11.15
2023-01-09T02:07:11.105Z,11.18
2023-01-09T02:09:47.302Z,10.80
2023-01-09T02:12:28.969Z,11.43
2023-01-09T02:15:17.330Z,10.95
2023-01-09T02:18:19.677Z,11.02
2023-01-09T02:21:13.607Z,11.40
2023-01-09T02:24:04.801Z,11.15
2023-01-09T02:26:56.010Z,10.60
2023-01-09T02:29:38.116Z,11.43
2023-01-09T02:32:32.991Z,10.93
2023-01-09T02:35:51.081Z,11.38
2023-01-09T02:38:45.593Z,10.73
2023-01-09T02:41:31.855Z,10.98
2023-01-09T02:44:36.135Z,10.75
2023-01-09T02:47:34.569Z,11.30
2023-01-09T02:50:17.736Z,12.02
2023-01-09T02:53:25.410Z,11.45
2023-01-09T02:56:11.951Z,11.63
2023-01-09T02:59:28.663Z,12.07
2023-01-09T03:02:34.602Z,12.70
2023-01-09T03:05:24.413Z,12.57
2023-01-09T03:08:18.692Z,12.70
2023-01-09T03:11:14.868Z,12.40
2023-01-09T03:14:01.325Z,13.57
2023-01-09T03:16:48.143Z,14.48
2023-01-09T03:19:28.255Z,14.55
2023-01-09T03:22:09.094Z,15.02
2023-01-09T03:24:54.705Z,14.63
2023-01-09T03:27:33.052Z,15.25
2023-01-09T03:30:13.828Z,15.50
2023-01-09T03:33:08.137Z,15.18
2023-01-09T03:35:45.694Z,15.90
2023-01-09T03:38:24.552Z,14.65
2023-01-09T03:41:05.197Z,14.63
2023-01-09T03:43:45.925Z,15.68
2023-01-09T03:46:27.703Z,15.25
2023-01-09T03:49:00.817Z,15.32
2023-01-09T03:51:44.439Z,15.98
2023-01-09T03:54:31.532Z,15.90
2023-01-09T03:57:11.538Z,15.50
2023-01-09T03:59:52.887Z,15.13
2023-01-09T04:02:36.717Z,15.38
2023-01-09T04:05:15.102Z,16.83
2023-01-09T04:07:58.487Z,16.42
2023-01-09T04:10:38.340Z,16.52
2023-01-09T04:13:16.379Z,16.23
2023-01-09T04:15:49.223Z,16.58
2023-01-09T04:18:27.546Z,17.80
2023-01-09T04:20:59.559Z,17.08
2023-01-09T04:23:37.477Z,15.40
2023-01-09T04:26:17.336Z,15.85
2023-01-09T04:28:46.601Z,16.08
2023-01-09T04:31:26.900Z,16.27
2023-01-09T04:34:04.332Z,15.82
2023-01-09T04:36:37.061Z,17.02
2023-01-09T04:39:11.467Z,15.75
2023-01-09T04:41:49.784Z,17.25
2023-01-09T04:44:37.940Z,17.67
2023-01-09T04:47:27.201Z,18.80
2023-01-09T04:50:04.731Z,18.70
2023-01-09T04:52:48.443Z,19.15
2023-01-09T04:55:17.691Z,18.23
2023-01-09T04:57:57.892Z,17.70
2023-01-09T05:00:33.562Z,18.08
2023-01-09T05:03:22.008Z,18.23
2023-01-09T05:05:57.041Z,19.70
2023-01-09T05:08:34.662Z,22.25
2023-01-09T05:11:13.528Z,21.35
2023-01-09T05:13:54.368Z,23.10
2023-01-09T05:16:32.144Z,22.92
2023-01-09T05:19:15.383Z,25.30
2023-01-09T05:22:02.057Z,19.75
2023-01-09T05:24:34.098Z,24.63
2023-01-09T05:27:09.721Z,27.98
2023-01-09T05:29:51.871Z,26.30
2023-01-09T05:32:18.831Z,28.15
2023-01-09T05:34:59.389Z,26.77
2023-01-09T05:37:40.162Z,29.75
2023-01-09T05:40:20.676Z,31.58
2023-01-09T05:43:04.881Z,30.77
2023-01-09T05:45:45.543Z,31.27
2023-01-09T05:48:25.750Z,30.27
2023-01-09T05:51:06.474Z,32.25
2023-01-09T05:53:39.163Z,33.78
2023-01-09T05:56:22.699Z,33.90
2023-01-09T05:59:03.432Z,34.55
2023-01-09T06:01:41.106Z,35.50
2023-01-09T06:04:21.845Z,34.67
2023-01-09T06:07:10.066Z,35.78
2023-01-09T06:09:56.677Z,35.75
2023-01-09T06:12:34.689Z,37.30
2023-01-09T06:15:09.141Z,35.78
2023-01-09T06:17:52.105Z,38.60
2023-01-09T06:20:35.322Z,35.95
2023-01-09T06:23:12.203Z,24.88
2023-01-09T06:26:00.192Z,35.90
2023-01-09T06:28:45.912Z,37.17
2023-01-09T06:31:26.663Z,41.42
2023-01-09T06:34:01.970Z,39.97
2023-01-09T06:36:42.836Z,37.85
2023-01-09T06:39:20.597Z,34.38
2023-01-09T06:42:03.979Z,35.80
2023-01-09T06:44:48.419Z,36.38
2023-01-09T06:47:31.118Z,36.67
2023-01-09T06:50:09.290Z,34.95
2023-01-09T06:52:53.074Z,33.42
2023-01-09T06:55:30.205Z,33.75
2023-01-09T06:58:05.846Z,33.42
2023-01-09T07:00:52.327Z,33.65
2023-01-09T07:03:27.603Z,37.10
2023-01-09T07:06:05.680Z,37.25
2023-01-09T07:08:35.456Z,32.88
2023-01-09T07:11:13.418Z,34.30
2023-01-09T07:13:48.498Z,32.95
2023-01-09T07:16:24.372Z,34.72
2023-01-09T07:19:05.449Z,37.90
2023-01-09T07:21:46.025Z,37.90
2023-01-09T07:24:29.137Z,37.97
2023-01-09T07:27:06.809Z,36.03
2023-01-09T07:29:48.511Z,36.17
2023-01-09T07:32:26.767Z,34.75
2023-01-09T07:34:59.511Z,36.15
2023-01-09T07:37:34.268Z,35.03
2023-01-09T07:40:10.527Z,35.53
2023-01-09T07:42:43.238Z,35.13
2023-01-09T07:45:24.891Z,32.67
2023-01-09T07:48:07.713Z,32.03
2023-01-09T07:50:46.495Z,31.92
2023-01-09T07:53:15.967Z,32.85
2023-01-09T07:56:06.049Z,34.42
2023-01-09T07:58:46.787Z,33.60
2023-01-09T08:01:32.543Z,33.30
2023-01-09T08:04:02.770Z,32.70
2023-01-09T08:06:41.749Z,33.00
2023-01-09T08:09:29.027Z,34.72
2023-01-09T08:12:09.706Z,30.73
2023-01-09T08:14:49.342Z,32.65
2023-01-09T08:17:32.371Z,32.00
2023-01-09T08:20:10.981Z,30.25
2023-01-09T08:22:57.798Z,30.08
2023-01-09T08:25:40.504Z,28.13
2023-01-09T08:28:17.551Z,28.38
2023-01-09T08:31:07.583Z,27.83
2023-01-09T08:33:42.297Z,26.30
2023-01-09T08:36:23.026Z,27.63
2023-01-09T08:38:55.470Z,27.38
2023-01-09T08:41:49.402Z,27.60
2023-01-09T08:44:45.914Z,28.00
2023-01-09T08:47:40.565Z,28.30
2023-01-09T08:50:24.323Z,26.80
2023-01-09T08:53:07.619Z,30.25
2023-01-09T08:55:51.777Z,32.25
2023-01-09T08:58:30.166Z,34.75
2023-01-09T09:01:10.587Z,31.15
2023-01-09T09:03:48.330Z,30.48
2023-01-09T09:06:25.560Z,30.95
2023-01-09T09:09:04.018Z,38.80
2023-01-09T09:11:39.742Z,38.28
2023-01-09T09:14:30.729Z,36.70
2023-01-09T09:17:03.763Z,34.05
2023-01-09T09:19:41.512Z,31.90
2023-01-09T09:22:14.240Z,30.75
2023-01-09T09:24:47.670Z,32.77
2023-01-09T09:27:25.449Z,33.05
2023-01-09T09:30:00.171Z,33.17
2023-01-09T09:32:37.025Z,34.63
2023-01-09T09:35:21.280Z,31.60
2023-01-09T09:38:10.095Z,32.78
2023-01-09T09:41:37.736Z,33.63
2023-01-09T09:44:52.627Z,38.53
2023-01-09T09:47:43.260Z,51.55
2023-01-09T09:50:24.812Z,57.45
2023-01-09T09:55:45.974Z,48.53
2023-01-09T09:58:22.960Z,54.03
2023-01-09T10:01:01.958Z,60.08
2023-01-09T10:03:48.654Z,58.17
2023-01-09T10:06:26.574Z,52.15
2023-01-09T10:09:28.732Z,51.55
2023-01-09T10:12:33.081Z,50.97
2023-01-09T10:15:20.891Z,43.42
2023-01-09T10:18:07.609Z,45.63
2023-01-09T10:20:56.724Z,43.25
2023-01-09T10:23:58.895Z,40.45
2023-01-09T10:27:00.911Z,42.58
2023-01-09T10:29:52.312Z,40.60
2023-01-09T10:32:57.250Z,41.40
2023-01-09T10:35:51.078Z,39.50
2023-01-09T10:38:41.269Z,38.08
2023-01-09T10:41:26.990Z,40.83
2023-01-09T10:44:25.962Z,42.63
2023-01-09T10:47:12.628Z,42.20
2023-01-09T10:49:51.146Z,42.05
2023-01-09T10:52:36.919Z,39.92
2023-01-09T10:55:28.049Z,42.30
2023-01-09T10:58:14.783Z,41.80
2023-01-09T11:00:53.547Z,39.28
2023-01-09T11:03:32.302Z,40.47
2023-01-09T11:06:35.199Z,43.17
2023-01-09T11:09:11.333Z,45.33
2023-01-09T11:11:54.447Z,46.22
2023-01-09T11:14:39.001Z,40.83
2023-01-09T11:17:33.944Z,36.88
2023-01-09T11:20:26.905Z,36.67
2023-01-09T11:23:25.049Z,37.42
2023-01-09T11:26:10.271Z,34.50
2023-01-09T11:29:03.358Z,40.00
2023-01-09T11:31:58.723Z,38.95
2023-01-09T11:34:43.809Z,41.85
2023-01-09T11:38:01.520Z,38.45
2023-01-09T11:40:40.779Z,35.05
2023-01-09T11:43:28.566Z,42.80
2023-01-09T11:46:24.509Z,40.40
2023-01-09T11:49:08.452Z,39.55
2023-01-09T11:54:37.864Z,37.03
2023-01-09T11:57:16.671Z,43.92
2023-01-09T12:00:04.487Z,42.67
2023-01-09T12:03:16.231Z,41.30
2023-01-09T12:06:13.443Z,41.03
2023-01-09T12:09:12.877Z,42.63
2023-01-09T12:12:55.864Z,49.25
2023-01-09T12:16:22.331Z,46.78
2023-01-09T12:19:06.735Z,52.65
2023-01-09T12:21:57.551Z,55.63
2023-01-09T12:25:05.493Z,51.05
2023-01-09T12:28:13.888Z,49.83
2023-01-09T12:31:21.462Z,49.03
2023-01-09T12:34:38.134Z,46.17
2023-01-09T12:38:05.485Z,50.03
2023-01-09T12:41:08.164Z,45.60
2023-01-09T12:44:11.459Z,47.25
2023-01-09T12:47:38.671Z,40.75
2023-01-09T12:50:34.480Z,45.10
2023-01-09T12:53:28.333Z,48.22
2023-01-09T12:56:18.149Z,50.78
2023-01-09T12:59:05.595Z,50.95
2023-01-09T13:02:15.898Z,55.00
2023-01-09T13:05:07.052Z,51.30
2023-01-09T13:10:34.481Z,52.20
2023-01-09T13:13:24.399Z,50.00
2023-01-09T13:16:19.551Z,59.67
2023-01-09T13:19:04.771Z,52.15
2023-01-09T13:21:55.064Z,71.50
2023-01-09T13:24:52.021Z,70.22
2023-01-09T13:27:39.617Z,64.60
2023-01-09T13:30:28.367Z,59.78
2023-01-09T13:33:43.426Z,59.22
2023-01-09T13:36:47.363Z,55.42
2023-01-09T13:39:35.373Z,56.17
2023-01-09T13:42:38.850Z,52.60
2023-01-09T13:45:26.907Z,57.60
2023-01-09T13:48:20.483Z,58.83
2023-01-09T13:51:36.636Z,62.03
2023-01-09T13:54:33.647Z,56.67
2023-01-09T13:57:43.883Z,59.75
2023-01-09T14:00:34.497Z,59.55
2023-01-09T14:03:31.604Z,60.00
2023-01-09T14:06:34.972Z,57.47
2023-01-09T14:09:29.880Z,64.05
2023-01-09T14:12:17.739Z,58.67
2023-01-09T14:15:01.337Z,63.70
2023-01-09T14:17:44.269Z,61.15
2023-01-09T14:20:52.763Z,63.75
2023-01-09T14:24:06.467Z,67.75
2023-01-09T14:26:48.271Z,62.67
2023-01-09T14:29:45.427Z,61.53
2023-01-09T14:32:29.828Z,62.55
2023-01-09T14:35:19.967Z,62.13
2023-01-09T14:38:09.684Z,57.60
2023-01-09T14:41:13.746Z,59.97
2023-01-09T14:44:03.701Z,58.65
2023-01-09T14:46:50.529Z,56.88
2023-01-09T14:49:34.779Z,59.85
2023-01-09T14:52:39.906Z,59.63
2023-01-09T14:55:39.879Z,59.60
2023-01-09T14:58:45.002Z,60.03
2023-01-09T15:01:26.533Z,57.03
2023-01-09T15:04:46.030Z,57.40
2023-01-09T15:07:56.581Z,58.60
2023-01-09T15:10:37.514Z,57.60
2023-01-09T15:13:37.091Z,57.65
2023-01-09T15:16:20.655Z,61.95
2023-01-09T15:19:07.163Z,62.15
2023-01-09T15:22:04.430Z,62.97
2023-01-09T15:24:47.932Z,60.63
2023-01-09T15:27:26.521Z,57.60
2023-01-09T15:30:28.191Z,62.45
2023-01-09T15:33:14.523Z,62.78
2023-01-09T15:36:02.136Z,59.80
2023-01-09T15:38:50.484Z,62.42
2023-01-09T15:41:56.856Z,59.33
2023-01-09T15:44:44.798Z,57.25
2023-01-09T15:47:29.507Z,55.78
2023-01-09T15:50:18.254Z,59.95
2023-01-09T15:53:11.026Z,56.45
2023-01-09T15:56:05.596Z,54.38
2023-01-09T15:58:47.758Z,53.45
2023-01-09T16:02:07.590Z,50.05
2023-01-09T16:04:59.414Z,52.40
2023-01-09T16:07:45.876Z,54.35
2023-01-09T16:11:02.715Z,52.33
2023-01-09T16:13:55.104Z,52.70
2023-01-09T16:16:45.239Z,54.58
2023-01-09T16:20:02.755Z,54.65
2023-01-09T16:22:57.191Z,54.70
2023-01-09T16:25:46.414Z,55.72
2023-01-09T16:28:27.124Z,57.38
2023-01-09T16:31:18.824Z,59.22
2023-01-09T16:34:11.483Z,56.13
2023-01-09T16:36:54.017Z,55.78
2023-01-09T16:39:31.976Z,56.30
2023-01-09T16:42:28.035Z,62.15
2023-01-09T16:45:16.107Z,56.13
2023-01-09T16:48:03.451Z,58.60
2023-01-09T16:50:46.821Z,57.45
2023-01-09T16:53:33.298Z,53.47
2023-01-09T16:56:16.088Z,55.75
2023-01-09T16:59:00.573Z,55.22
2023-01-09T17:01:44.279Z,53.13
2023-01-09T17:04:22.426Z,54.30
2023-01-09T17:07:06.783Z,49.72
2023-01-09T17:10:03.632Z,52.03
2023-01-09T17:12:49.222Z,51.15
2023-01-09T17:15:32.444Z,53.35
2023-01-09T17:18:19.480Z,54.85
2023-01-09T17:20:57.591Z,50.15
2023-01-09T17:23:32.845Z,53.17
2023-01-09T17:26:35.060Z,54.17
2023-01-09T17:29:21.264Z,55.53
2023-01-09T17:31:56.498Z,52.42
2023-01-09T17:34:43.193Z,49.88
2023-01-09T17:37:27.181Z,53.67
2023-01-09T17:40:19.637Z,50.95
2023-01-09T17:42:57.230Z,51.15
2023-01-09T17:45:41.121Z,52.20
2023-01-09T17:48:30.601Z,51.78
2023-01-09T17:51:07.413Z,52.42
2023-01-09T17:53:55.716Z,49.30
2023-01-09T17:56:46.810Z,47.88
2023-01-09T17:59:29.436Z,47.53
2023-01-09T18:02:07.330Z,45.22
2023-01-09T18:04:51.372Z,49.55
2023-01-09T18:10:11.812Z,43.53
2023-01-09T18:12:57.586Z,44.60
2023-01-09T18:15:36.078Z,47.30
2023-01-09T18:18:17.273Z,44.67
2023-01-09T18:21:07.008Z,47.75
2023-01-09T18:23:42.303Z,46.95
2023-01-09T18:26:23.439Z,51.25
2023-01-09T18:29:14.085Z,44.00
2023-01-09T18:31:55.077Z,43.67
2023-01-09T18:34:39.035Z,48.95
2023-01-09T18:37:29.693Z,46.08
2023-01-09T18:40:05.434Z,45.70
2023-01-09T18:42:45.451Z,41.65
2023-01-09T18:45:26.877Z,45.97
2023-01-09T18:48:07.593Z,45.00
2023-01-09T18:50:51.589Z,46.28
2023-01-09T18:53:37.757Z,47.20
2023-01-09T18:56:12.635Z,46.22
2023-01-09T18:59:09.095Z,45.92
2023-01-09T19:01:56.241Z,42.25
2023-01-09T19:04:46.422Z,44.88
2023-01-09T19:07:24.158Z,46.70
2023-01-09T19:10:11.898Z,46.13
2023-01-09T19:13:00.820Z,48.92
2023-01-09T19:15:43.762Z,44.88
2023-01-09T19:18:22.370Z,48.97
2023-01-09T19:21:03.035Z,46.90
2023-01-09T19:23:57.854Z,43.63
2023-01-09T19:26:36.724Z,44.67
2023-01-09T19:29:20.658Z,42.55
2023-01-09T19:32:08.765Z,42.88
2023-01-09T19:34:53.484Z,44.15
2023-01-09T19:37:45.383Z,46.85
2023-01-09T19:40:29.769Z,44.08
2023-01-09T19:43:25.974Z,44.85
2023-01-09T19:46:06.956Z,46.70
2023-01-09T19:48:47.691Z,48.72
2023-01-09T19:51:29.467Z,49.60
2023-01-09T19:54:13.511Z,47.38
2023-01-09T19:57:20.042Z,46.28
2023-01-09T20:00:01.593Z,47.42
2023-01-09T20:02:57.864Z,44.45
2023-01-09T20:05:37.519Z,46.80
2023-01-09T20:08:25.900Z,45.85
2023-01-09T20:11:18.234Z,46.13
2023-01-09T20:14:05.656Z,40.17
2023-01-09T20:16:52.459Z,41.15
2023-01-09T20:19:42.480Z,37.33
2023-01-09T20:22:26.381Z,38.25
2023-01-09T20:28:24.413Z,34.80
2023-01-09T20:31:31.505Z,39.38
2023-01-09T20:34:28.796Z,36.67
2023-01-09T20:37:11.919Z,39.75
2023-01-09T20:39:58.982Z,35.63
2023-01-09T20:42:52.345Z,39.80
2023-01-09T20:45:31.509Z,39.80
2023-01-09T20:48:12.210Z,41.28
2023-01-09T20:50:56.781Z,40.13
2023-01-09T20:53:39.814Z,41.22
2023-01-09T20:56:33.223Z,45.78
2023-01-09T20:59:24.016Z,41.17
2023-01-09T21:02:01.913Z,42.10
2023-01-09T21:04:42.946Z,41.78
2023-01-09T21:07:28.031Z,42.13
2023-01-09T21:10:11.508Z,43.22
2023-01-09T21:12:50.661Z,42.85
2023-01-09T21:15:35.582Z,46.45
2023-01-09T21:18:15.830Z,42.40
2023-01-09T21:20:55.764Z,43.70
2023-01-09T21:23:43.579Z,39.72
2023-01-09T21:26:32.359Z,38.30
2023-01-09T21:29:15.757Z,41.17
2023-01-09T21:32:00.466Z,39.28
2023-01-09T21:34:48.919Z,38.30
2023-01-09T21:37:40.374Z,39.58
2023-01-09T21:40:30.733Z,36.65
2023-01-09T21:43:40.023Z,38.78
2023-01-09T21:46:44.745Z,39.38
2023-01-09T21:49:31.497Z,34.88
2023-01-09T21:52:24.077Z,36.00
2023-01-09T21:55:03.814Z,35.63
2023-01-09T21:57:59.668Z,35.08
2023-01-09T22:00:50.979Z,35.58
2023-01-09T22:03:47.827Z,35.72
2023-01-09T22:06:31.751Z,34.45
2023-01-09T22:12:00.703Z,31.05
2023-01-09T22:14:42.004Z,33.90
2023-01-09T22:17:40.355Z,33.88
2023-01-09T22:20:24.345Z,34.70
2023-01-09T22:23:08.986Z,35.03
2023-01-09T22:25:44.480Z,33.95
2023-01-09T22:28:33.982Z,36.20
2023-01-09T22:31:25.880Z,36.55
2023-01-09T22:34:21.462Z,35.45
2023-01-09T22:37:05.299Z,34.22
2023-01-09T22:39:53.891Z,35.75
2023-01-09T22:42:41.543Z,35.20
2023-01-09T22:45:22.365Z,37.67
2023-01-09T22:48:09.660Z,35.28
2023-01-09T22:50:53.419Z,33.78
2023-01-09T22:53:52.392Z,34.97
2023-01-09T22:56:35.700Z,32.42
2023-01-09T22:59:27.965Z,35.17
2023-01-09T23:02:08.746Z,30.90
2023-01-09T23:04:58.411Z,34.53
2023-01-09T23:07:33.701Z,29.55
2023-01-09T23:10:20.421Z,31.80
2023-01-09T23:13:17.955Z,28.50
2023-01-09T23:16:02.253Z,27.65
2023-01-09T23:18:51.429Z,31.80
2023-01-09T23:21:31.896Z,29.42
2023-01-09T23:24:09.433Z,28.27
2023-01-09T23:26:55.026Z,26.65
2023-01-09T23:29:38.802Z,28.20
2023-01-09T23:32:24.432Z,27.77
2023-01-09T23:35:08.492Z,27.92
2023-01-09T23:38:03.074Z,26.15
2023-01-09T23:40:51.608Z,25.50
2023-01-09T23:43:38.008Z,26.67
2023-01-09T23:46:22.639Z,27.80
2023-01-09T23:49:03.665Z,27.70
2023-01-09T23:51:51.811Z,28.80
2023-01-09T23:54:43.085Z,34.15
2023-01-09T23:57:27.560Z,42.28
